This is the latest recevied weather packets stored in our database for station/object KN6ZYR. If no packets are shown the sender has not sent any weather packets the latest 10 day(s).
| Time | Temp. | Humidity | Pressure | Rain* | Wind** | Luminosity | Snow |
|---|---|---|---|---|---|---|---|
| 1777841384 | 22.78° C | 20% | 1013.8 hPa | 0 mm | - | 494 W/m² | - |
| 1777841082 | 22.78° C | 20% | 1014 hPa | 0 mm | - | 707 W/m² | - |
| 1777840779 | 21.11° C | 23% | 1014.1 hPa | 0 mm | - | 778 W/m² | - |
| 1777840477 | 21.67° C | 25% | 1014.3 hPa | 0 mm | - | 659 W/m² | - |
| 1777840173 | 21.11° C | 25% | 1014.8 hPa | 0 mm | - | 913 W/m² | - |
| 1777839872 | 23.89° C | 23% | 1015.3 hPa | 0 mm | - | 228 W/m² | - |
| 1777839570 | 24.44° C | 20% | 1014.3 hPa | 0 mm | - | 925 W/m² | - |
| 1777839266 | 23.89° C | 20% | 1014.1 hPa | 0 mm | - | 968 W/m² | - |
| 1777838964 | 23.33° C | 22% | 1014.3 hPa | 0 mm | - | 315 W/m² | - |
| 1777838660 | 21.67° C | 24% | 1014.5 hPa | 0 mm | - | 921 W/m² | - |
| 1777838357 | 20.56° C | 25% | 1014.5 hPa | 0 mm | - | 651 W/m² | - |
| 1777838054 | 20.56° C | 24% | 1014.7 hPa | 0 mm | - | 380 W/m² | - |
| 1777837751 | 20.56° C | 27% | 1015 hPa | 0 mm | - | 372 W/m² | - |
| 1777837448 | 20° C | 25% | 1015.3 hPa | 0 mm | - | 244 W/m² | - |
| 1777837143 | 20° C | 25% | 1015.7 hPa | 0 mm | - | 204 W/m² | - |
| 1777836839 | 20° C | 24% | 1015.7 hPa | 0 mm | - | 150 W/m² | - |
| 1777836534 | 20° C | 25% | 1015.7 hPa | 0 mm | - | 125 W/m² | - |
| 1777836230 | 20° C | 28% | 1015.8 hPa | 0 mm | - | 132 W/m² | - |
| 1777835927 | 21.11° C | 23% | 1015.3 hPa | 0 mm | - | 88 W/m² | - |
| 1777835624 | 20.56° C | 26% | 1015.8 hPa | 0 mm | - | 121 W/m² | - |
| 1777835321 | 21.67° C | 25% | 1015.6 hPa | 0 mm | - | 202 W/m² | - |
| 1777835018 | 21.11° C | 24% | 1015.7 hPa | 0 mm | - | 241 W/m² | - |
| 1777834715 | 22.78° C | 24% | 1015.6 hPa | 0 mm | - | 201 W/m² | - |
| 1777834411 | 25° C | 20% | 1015.6 hPa | 0 mm | - | 875 W/m² | - |
| 1777834106 | 24.44° C | 20% | 1015.5 hPa | 0 mm | - | 359 W/m² | - |
* Rain latest hour (hover to see other rain measurements)
** Current wind speed in m/s (hover to see current wind gust speed)